Time;durP1;ratioP1;P1;durP2;ratioP2;P2;SDS_P1;SDS_P2;PMS_P1;PMS_P2;Temp;Humidity;BMP_temperature;BMP_pressure;BME280_temperature;BME280_humidity;BME280_pressure;Samples;Min_cycle;Max_cycle;Signal;HPM_P1;HPM_P2
2023/07/29 00:02:06;;;;;;;8.45;4.90;;;;;;;19.88;100.00;100603.78;5095533;28;20056;-64
2023/07/29 00:04:34;;;;;;;7.97;4.70;;;;;;;19.85;100.00;100601.69;5082607;28;20055;-64
2023/07/29 00:07:02;;;;;;;8.63;4.68;;;;;;;19.80;100.00;100599.13;5113859;28;20054;-65
2023/07/29 00:09:30;;;;;;;7.97;4.63;;;;;;;19.79;100.00;100600.25;5103712;28;20073;-65
2023/07/29 00:11:57;;;;;;;9.38;5.15;;;;;;;19.75;100.00;100593.81;5116360;28;20055;-65
2023/07/29 00:14:25;;;;;;;7.93;5.40;;;;;;;19.70;100.00;100580.16;5098048;28;20053;-63
2023/07/29 00:16:53;;;;;;;10.10;5.32;;;;;;;19.67;100.00;100583.56;5097142;28;20048;-63
2023/07/29 00:19:23;;;;;;;7.85;5.18;;;;;;;19.64;100.00;100584.25;5114748;28;20054;-64
2023/07/29 00:21:51;;;;;;;10.52;4.90;;;;;;;19.62;100.00;100575.47;5099389;28;20096;-63
2023/07/29 00:24:19;;;;;;;9.30;4.93;;;;;;;19.61;100.00;100568.34;5098511;28;20043;-63
2023/07/29 00:26:46;;;;;;;9.63;4.95;;;;;;;19.59;100.00;100571.44;5114372;28;20047;-65
2023/07/29 00:29:14;;;;;;;8.73;4.93;;;;;;;19.56;100.00;100559.09;5114995;28;20048;-65
2023/07/29 00:31:42;;;;;;;7.68;4.38;;;;;;;19.54;100.00;100564.16;5116468;28;20081;-65
2023/07/29 00:34:10;;;;;;;7.32;4.90;;;;;;;19.54;100.00;100571.63;5117086;28;20054;-65
2023/07/29 00:36:38;;;;;;;10.32;4.78;;;;;;;19.57;100.00;100570.94;5076020;28;20032;-65
2023/07/29 00:39:06;;;;;;;8.48;4.70;;;;;;;19.58;100.00;100578.13;5077870;28;20496;-65
2023/07/29 00:41:34;;;;;;;7.32;4.32;;;;;;;19.61;100.00;100573.88;5061695;28;20055;-64
2023/07/29 00:44:01;;;;;;;7.60;4.53;;;;;;;19.63;100.00;100577.13;5078919;28;20082;-63
2023/07/29 00:46:30;;;;;;;7.28;4.43;;;;;;;19.64;100.00;100575.97;5089777;28;20109;-65
2023/07/29 00:48:58;;;;;;;8.95;4.65;;;;;;;19.64;100.00;100585.06;5080507;28;20054;-63
2023/07/29 00:51:26;;;;;;;10.18;5.15;;;;;;;19.65;100.00;100583.94;5099096;28;20506;-65
2023/07/29 00:53:56;;;;;;;8.20;5.47;;;;;;;19.63;100.00;100569.63;5081899;28;20112;-65
2023/07/29 00:56:24;;;;;;;8.23;5.22;;;;;;;19.62;100.00;100562.47;5090334;28;20039;-65
2023/07/29 00:58:58;;;;;;;9.07;4.82;;;;;;;19.63;100.00;100563.28;5062118;28;20047;-65
2023/07/29 01:01:26;;;;;;;11.20;5.30;;;;;;;19.62;100.00;100561.66;5078757;28;20044;-64
2023/07/29 01:03:54;;;;;;;7.18;4.43;;;;;;;19.62;100.00;100567.19;5028508;28;20079;-64
2023/07/29 01:06:57;;;;;;;9.00;5.50;;;;;;;19.62;100.00;100567.19;5073129;28;20036;-64
2023/07/29 01:09:48;;;;;;;11.93;6.43;;;;;;;19.59;100.00;100550.13;5073814;28;20048;-65
2023/07/29 01:12:41;;;;;;;8.73;5.25;;;;;;;19.54;100.00;100547.56;5077399;28;20078;-64
2023/07/29 01:15:15;;;;;;;7.22;4.88;;;;;;;19.52;100.00;100552.59;5094578;28;20105;-64
2023/07/29 01:17:59;;;;;;;8.80;5.38;;;;;;;19.51;100.00;100551.00;5081162;28;20047;-64
2023/07/29 01:20:27;;;;;;;8.07;4.72;;;;;;;19.50;100.00;100552.13;5093059;28;20118;-63
2023/07/29 01:22:55;;;;;;;6.05;4.45;;;;;;;19.51;100.00;100551.00;5080736;28;20050;-64
2023/07/29 01:25:23;;;;;;;9.00;4.47;;;;;;;19.51;100.00;100559.28;5112272;28;20063;-64
2023/07/29 01:27:52;;;;;;;7.88;4.95;;;;;;;19.54;100.00;100566.09;5097358;28;20047;-65
2023/07/29 01:30:22;;;;;;;6.63;4.45;;;;;;;19.54;100.00;100561.38;5115831;28;20120;-64
2023/07/29 01:32:54;;;;;;;8.13;4.93;;;;;;;19.54;100.00;100555.84;5096204;28;20043;-64
2023/07/29 01:35:27;;;;;;;10.55;4.95;;;;;;;19.53;100.00;100559.78;5095898;28;20051;-65
2023/07/29 01:38:18;;;;;;;7.70;4.72;;;;;;;19.52;100.00;100568.38;5081372;28;20503;-64
2023/07/29 01:40:47;;;;;;;7.15;4.53;;;;;;;19.50;100.00;100560.41;5080419;28;20051;-64
2023/07/29 01:43:15;;;;;;;7.10;4.55;;;;;;;19.51;100.00;100559.28;5080257;28;20092;-64
2023/07/29 01:45:43;;;;;;;8.32;4.78;;;;;;;19.51;100.00;100555.72;5112205;28;20140;-65
2023/07/29 01:48:11;;;;;;;6.95;4.35;;;;;;;19.51;100.00;100561.25;5096793;28;20062;-63
2023/07/29 01:50:39;;;;;;;8.02;5.00;;;;;;;19.50;100.00;100560.41;5096728;28;20049;-65
2023/07/29 01:53:07;;;;;;;9.18;5.10;;;;;;;19.49;100.00;100558.00;5078101;28;20050;-64
2023/07/29 01:55:35;;;;;;;9.75;6.30;;;;;;;19.47;100.00;100561.09;5089706;28;20479;-65
2023/07/29 01:58:03;;;;;;;11.05;6.07;;;;;;;19.46;100.00;100565.03;5083307;28;20047;-64
2023/07/29 02:00:35;;;;;;;10.45;6.13;;;;;;;19.43;100.00;100562.09;5060571;28;20109;-65
2023/07/29 02:03:02;;;;;;;11.18;6.30;;;;;;;19.39;100.00;100569.47;5060061;28;20052;-66
2023/07/29 02:05:30;;;;;;;12.63;6.85;;;;;;;19.34;100.00;100567.69;5087354;28;20039;-63
2023/07/29 02:07:58;;;;;;;10.40;5.97;;;;;;;19.25;100.00;100561.41;5114219;28;20364;-64
2023/07/29 02:10:26;;;;;;;9.75;5.45;;;;;;;19.22;100.00;100570.31;5070517;28;20044;-63
2023/07/29 02:12:54;;;;;;;13.25;5.80;;;;;;;19.21;100.00;100569.53;5076546;28;20044;-63
2023/07/29 02:15:22;;;;;;;7.70;5.03;;;;;;;19.16;100.00;100562.25;5091121;28;20092;-64
2023/07/29 02:17:51;;;;;;;7.30;4.93;;;;;;;19.16;100.00;100561.44;5112922;28;20039;-63
2023/07/29 02:20:19;;;;;;;8.02;4.72;;;;;;;19.12;100.00;100569.59;5096684;28;20051;-64
2023/07/29 02:22:48;;;;;;;8.05;4.63;;;;;;;19.10;100.00;100568.31;5071688;28;20056;-63
2023/07/29 02:25:16;;;;;;;6.70;4.30;;;;;;;19.10;100.00;100562.78;5071024;28;20509;-65
2023/07/29 02:27:44;;;;;;;9.80;4.40;;;;;;;19.10;100.00;100563.59;5079979;28;20502;-66
2023/07/29 02:30:12;;;;;;;6.93;3.92;;;;;;;19.10;100.00;100552.53;5096151;28;20060;-63
2023/07/29 02:32:40;;;;;;;5.57;3.45;;;;;;;19.10;100.00;100538.72;5114685;28;20052;-63
2023/07/29 02:35:08;;;;;;;4.75;3.35;;;;;;;19.13;100.00;100540.00;5094828;28;20051;-64
2023/07/29 02:37:36;;;;;;;5.13;3.33;;;;;;;19.15;100.00;100549.59;5059924;28;20055;-64
2023/07/29 02:40:05;;;;;;;5.90;3.58;;;;;;;19.18;100.00;100547.31;5078170;28;20511;-63
2023/07/29 02:42:33;;;;;;;5.30;3.17;;;;;;;19.20;100.00;100547.78;5096539;28;20054;-63
2023/07/29 02:45:01;;;;;;;6.80;3.55;;;;;;;19.21;100.00;100554.91;5105175;28;20388;-65
2023/07/29 02:47:30;;;;;;;6.00;3.40;;;;;;;19.21;100.00;100546.63;5074072;28;20036;-65
2023/07/29 02:49:58;;;;;;;4.97;3.03;;;;;;;19.20;100.00;100543.06;5066592;28;20048;-63
2023/07/29 02:52:26;;;;;;;5.60;3.40;;;;;;;19.22;100.00;100545.47;5054061;28;20492;-63
2023/07/29 02:54:54;;;;;;;7.68;4.10;;;;;;;19.19;100.00;100549.72;5109322;28;20046;-63
2023/07/29 02:57:23;;;;;;;7.43;3.60;;;;;;;19.17;100.00;100546.50;5096145;28;20059;-61
2023/07/29 02:59:50;;;;;;;5.97;3.75;;;;;;;19.12;100.00;100539.22;5111489;28;20131;-65
2023/07/29 03:02:18;;;;;;;7.30;3.47;;;;;;;19.12;100.00;100543.91;5086606;28;20440;-65
2023/07/29 03:04:48;;;;;;;7.47;3.80;;;;;;;19.11;100.00;100545.84;5096141;28;20047;-65
2023/07/29 03:07:16;;;;;;;8.50;3.40;;;;;;;19.13;100.00;100540.00;5099567;28;20495;-67
2023/07/29 03:09:45;;;;;;;5.32;3.38;;;;;;;19.12;100.00;100539.22;5101408;28;20127;-64
2023/07/29 03:12:12;;;;;;;5.95;3.25;;;;;;;19.12;100.00;100539.22;5096357;28;20058;-64
2023/07/29 03:14:41;;;;;;;7.03;3.60;;;;;;;19.13;100.00;100538.06;5093639;28;20047;-64
2023/07/29 03:17:09;;;;;;;7.63;3.50;;;;;;;19.12;100.00;100539.22;5103410;28;20123;-61
2023/07/29 03:19:37;;;;;;;8.25;4.07;;;;;;;19.11;100.00;100537.56;5094378;28;20040;-62
2023/07/29 03:22:04;;;;;;;7.80;3.90;;;;;;;19.11;100.00;100545.84;5090341;28;20054;-63
2023/07/29 03:24:35;;;;;;;6.97;3.50;;;;;;;19.13;100.00;100545.53;5097124;28;20047;-61
2023/07/29 03:27:02;;;;;;;9.55;4.20;;;;;;;19.08;100.00;100542.97;5107000;28;20046;-60
2023/07/29 03:29:30;;;;;;;6.10;3.65;;;;;;;19.05;100.00;100538.91;5106186;28;20605;-63
2023/07/29 03:31:58;;;;;;;6.72;4.00;;;;;;;19.03;100.00;100534.88;5098050;28;20044;-64
2023/07/29 03:34:26;;;;;;;9.02;3.97;;;;;;;19.00;100.00;100541.03;5095909;28;20047;-64
2023/07/29 03:36:54;;;;;;;5.97;3.80;;;;;;;18.98;100.00;100544.16;5095479;28;20032;-65
2023/07/29 03:39:22;;;;;;;7.93;4.13;;;;;;;18.97;100.00;100541.72;5112302;28;20051;-65
2023/07/29 03:41:49;;;;;;;7.18;4.18;;;;;;;18.95;100.00;100547.56;5079511;28;20048;-64
2023/07/29 03:44:18;;;;;;;4.80;3.55;;;;;;;18.97;100.00;100553.56;5057283;28;20060;-64
2023/07/29 03:46:46;;;;;;;7.43;4.05;;;;;;;18.96;100.00;100548.38;5075641;28;20504;-64
2023/07/29 03:49:14;;;;;;;6.72;3.70;;;;;;;18.92;100.00;100550.97;5085247;28;20507;-64
2023/07/29 03:51:42;;;;;;;6.40;3.83;;;;;;;18.91;100.00;100552.13;5093960;28;20505;-63
2023/07/29 03:54:10;;;;;;;8.10;3.85;;;;;;;18.89;100.00;100552.44;5112352;28;20039;-64
2023/07/29 03:56:38;;;;;;;10.48;4.03;;;;;;;18.88;100.00;100555.53;5095404;28;20491;-64
2023/07/29 03:59:07;;;;;;;5.65;3.83;;;;;;;18.83;100.00;100552.97;5067658;28;20044;-63
2023/07/29 04:01:35;;;;;;;7.03;4.00;;;;;;;18.79;100.00;100540.97;5092151;28;20058;-64
2023/07/29 04:04:03;;;;;;;6.47;3.65;;;;;;;18.78;100.00;100548.44;5088994;28;20040;-63
2023/07/29 04:06:32;;;;;;;6.57;4.03;;;;;;;18.77;100.00;100543.25;5091937;28;20039;-64
2023/07/29 04:09:00;;;;;;;5.90;3.40;;;;;;;18.76;100.00;100536.06;5059474;28;20053;-64
2023/07/29 04:11:28;;;;;;;6.53;3.90;;;;;;;18.83;100.00;100515.16;5075319;28;20048;-64
2023/07/29 04:13:55;;;;;;;6.78;3.25;;;;;;;18.79;100.00;100510.63;5111767;28;20051;-63
2023/07/29 04:16:23;;;;;;;6.20;3.38;;;;;;;18.78;100.00;100503.47;5064929;28;20404;-63
2023/07/29 04:18:51;;;;;;;6.70;3.80;;;;;;;18.80;100.00;100504.75;5062045;28;20044;-63
2023/07/29 04:21:19;;;;;;;6.90;3.47;;;;;;;18.82;100.00;100509.94;5078803;28;20044;-65
2023/07/29 04:23:47;;;;;;;6.00;3.47;;;;;;;18.82;100.00;100519.03;5073026;28;21800;-64
2023/07/29 04:26:15;;;;;;;6.90;3.85;;;;;;;18.83;100.00;100514.31;5065187;28;20052;-64
2023/07/29 04:28:43;;;;;;;7.40;3.92;;;;;;;18.80;100.00;100518.56;5068829;28;20047;-63
2023/07/29 04:31:10;;;;;;;7.15;3.25;;;;;;;18.83;100.00;100520.66;5078309;28;20093;-64
2023/07/29 04:33:39;;;;;;;7.18;3.70;;;;;;;18.82;100.00;100540.31;5112366;28;20407;-64
2023/07/29 04:36:06;;;;;;;5.90;3.70;;;;;;;18.79;100.00;100557.53;5097982;28;20487;-63
2023/07/29 04:38:36;;;;;;;5.65;3.00;;;;;;;18.77;100.00;100562.56;5099157;28;20043;-63
2023/07/29 04:41:06;;;;;;;6.95;3.83;;;;;;;18.76;100.00;100574.72;5093862;28;20060;-63
2023/07/29 04:43:34;;;;;;;8.65;3.90;;;;;;;18.77;100.00;100570.84;5115416;28;20054;-64
2023/07/29 04:46:03;;;;;;;4.65;3.30;;;;;;;18.77;100.00;100565.34;5079585;28;20051;-65
2023/07/29 04:48:31;;;;;;;6.47;3.50;;;;;;;18.79;100.00;100563.06;5113339;28;20039;-63
2023/07/29 04:50:59;;;;;;;8.57;4.15;;;;;;;18.80;100.00;100564.66;5115094;28;20051;-63
2023/07/29 04:53:27;;;;;;;7.03;3.40;;;;;;;18.78;100.00;100566.94;5096611;28;20047;-63
2023/07/29 04:55:54;;;;;;;4.95;3.15;;;;;;;18.78;100.00;100567.75;5097765;28;20051;-65
2023/07/29 04:58:22;;;;;;;6.15;3.45;;;;;;;18.79;100.00;100571.34;5064845;28;20510;-63
2023/07/29 05:00:50;;;;;;;6.72;3.92;;;;;;;18.78;100.00;100567.75;5098556;28;20059;-63
2023/07/29 05:03:18;;;;;;;6.90;4.10;;;;;;;18.72;100.00;100564.34;5075761;28;20063;-64
2023/07/29 05:05:46;;;;;;;8.02;3.65;;;;;;;18.74;100.00;100558.50;5116244;28;20048;-63
2023/07/29 05:08:14;;;;;;;5.47;3.10;;;;;;;18.77;100.00;100568.09;5098210;28;20052;-63
2023/07/29 05:10:42;;;;;;;7.57;4.00;;;;;;;18.79;100.00;100568.59;5116685;28;20036;-62
2023/07/29 05:13:10;;;;;;;6.13;3.92;;;;;;;18.71;100.00;100573.78;5116646;28;20036;-62
2023/07/29 05:15:39;;;;;;;6.03;3.65;;;;;;;18.72;100.00;100578.13;5075915;28;20492;-62
2023/07/29 05:18:06;;;;;;;7.45;3.80;;;;;;;18.67;100.00;100572.00;5088953;28;20496;-66
2023/07/29 05:20:34;;;;;;;5.28;3.50;;;;;;;18.62;100.00;100581.25;5094172;28;20051;-63
2023/07/29 05:23:02;;;;;;;6.82;4.35;;;;;;;18.58;100.00;100583.03;5115594;28;20117;-63
2023/07/29 05:25:31;;;;;;;8.13;3.53;;;;;;;18.62;100.00;100580.44;5115081;28;20040;-63
2023/07/29 05:27:59;;;;;;;4.72;2.75;;;;;;;18.69;100.00;100595.38;5093980;28;20044;-63
2023/07/29 05:30:30;;;;;;;8.45;4.70;;;;;;;18.65;100.00;100597.16;5094788;28;21495;-64
2023/07/29 05:32:58;;;;;;;7.78;3.60;;;;;;;18.65;100.00;100601.88;5097164;28;20544;-62
2023/07/29 05:35:26;;;;;;;7.60;3.50;;;;;;;18.61;100.00;100598.13;5097519;28;20043;-64
2023/07/29 05:37:54;;;;;;;6.82;3.50;;;;;;;18.60;100.00;100600.09;5114703;28;20376;-63
2023/07/29 05:40:22;;;;;;;4.72;3.20;;;;;;;18.66;100.00;100598.75;5097760;28;20043;-65
2023/07/29 05:42:50;;;;;;;8.40;4.05;;;;;;;18.68;100.00;100585.44;5080602;28;20075;-63
2023/07/29 05:45:18;;;;;;;7.13;4.07;;;;;;;18.67;100.00;100586.59;5066711;28;20156;-63
2023/07/29 05:47:46;;;;;;;7.88;4.25;;;;;;;18.59;100.00;100587.44;5115741;28;20116;-63
2023/07/29 05:50:14;;;;;;;6.35;3.90;;;;;;;18.61;100.00;100592.59;5063023;28;20492;-63
2023/07/29 05:52:42;;;;;;;8.65;3.72;;;;;;;18.62;100.00;100592.28;5097199;28;20047;-64
2023/07/29 05:55:10;;;;;;;7.07;3.65;;;;;;;18.68;100.00;100588.19;5079758;28;20047;-65
2023/07/29 05:57:37;;;;;;;5.78;3.55;;;;;;;18.68;100.00;100588.19;5097123;28;20040;-63
2023/07/29 06:00:08;;;;;;;5.03;2.90;;;;;;;18.73;100.00;100587.22;5095698;28;20407;-63
2023/07/29 06:02:40;;;;;;;6.15;3.75;;;;;;;18.73;100.00;100590.78;5115360;28;20055;-63
2023/07/29 06:05:12;;;;;;;7.55;4.25;;;;;;;18.71;100.00;100593.09;5096770;28;20052;-63
2023/07/29 06:07:43;;;;;;;5.28;3.05;;;;;;;18.74;100.00;100581.38;5115157;28;20127;-63
2023/07/29 06:10:19;;;;;;;6.03;3.47;;;;;;;18.85;100.00;100592.09;5094439;28;20089;-63
2023/07/29 06:12:47;;;;;;;4.40;2.85;;;;;;;18.88;100.00;100588.66;5115449;28;20043;-62
2023/07/29 06:15:16;;;;;;;7.07;3.08;;;;;;;18.94;100.00;100590.91;5083860;28;20122;-63
2023/07/29 06:17:44;;;;;;;3.70;2.38;;;;;;;18.95;100.00;100588.97;5082256;28;20096;-62
2023/07/29 06:20:12;;;;;;;4.68;2.63;;;;;;;18.99;100.00;100589.94;5093985;28;20055;-63
2023/07/29 06:22:40;;;;;;;3.80;2.40;;;;;;;19.01;100.00;100587.66;5117386;28;20123;-63
2023/07/29 06:25:08;;;;;;;6.50;3.40;;;;;;;18.96;100.00;100584.28;5058543;28;20119;-62
2023/07/29 06:27:36;;;;;;;7.45;3.80;;;;;;;18.99;100.00;100595.47;5094037;28;20051;-62
2023/07/29 06:30:05;;;;;;;7.30;4.10;;;;;;;18.92;100.00;100595.16;5076034;28;20100;-65
2023/07/29 06:32:33;;;;;;;6.10;3.33;;;;;;;18.97;100.00;100583.94;5112197;28;20070;-63
2023/07/29 06:35:01;;;;;;;8.65;3.53;;;;;;;19.01;100.00;100595.94;5094372;28;20688;-64
2023/07/29 06:37:29;;;;;;;8.50;4.05;;;;;;;18.92;100.00;100595.16;5080176;28;20048;-63
2023/07/29 06:39:57;;;;;;;6.10;3.60;;;;;;;18.87;100.00;100609.13;5114378;28;20113;-64
2023/07/29 06:42:25;;;;;;;7.97;5.07;;;;;;;18.84;100.00;100598.75;5085289;28;20052;-63
2023/07/29 06:44:52;;;;;;;8.60;5.50;;;;;;;18.74;100.00;100599.91;5093195;28;20056;-65
2023/07/29 06:47:20;;;;;;;8.02;5.00;;;;;;;18.62;100.00;100597.81;5096912;28;20056;-64
2023/07/29 06:49:48;;;;;;;8.70;5.03;;;;;;;18.64;100.00;100605.75;5075808;28;20070;-63
2023/07/29 06:52:16;;;;;;;7.88;4.97;;;;;;;18.72;100.00;100614.00;5075831;28;20040;-63
2023/07/29 06:54:44;;;;;;;8.02;4.65;;;;;;;18.76;100.00;100613.34;5105348;28;20522;-63
2023/07/29 06:57:11;;;;;;;9.18;4.88;;;;;;;18.72;100.00;100614.00;5114627;28;20096;-62
2023/07/29 06:59:39;;;;;;;8.82;4.78;;;;;;;18.71;100.00;100606.88;5094340;28;20053;-63
2023/07/29 07:02:07;;;;;;;7.13;4.68;;;;;;;18.71;100.00;100604.13;5075643;28;20108;-61
2023/07/29 07:04:35;;;;;;;7.43;3.45;;;;;;;18.80;100.00;100604.13;5093987;28;20063;-63
2023/07/29 07:07:03;;;;;;;6.32;4.13;;;;;;;18.84;100.00;100598.75;5059109;28;20055;-63
2023/07/29 07:09:31;;;;;;;9.88;3.88;;;;;;;18.87;100.00;100596.16;5075769;28;20054;-63
2023/07/29 07:11:58;;;;;;;6.80;3.75;;;;;;;18.91;100.00;100599.06;5068120;28;20039;-63
2023/07/29 07:14:26;;;;;;;7.70;3.75;;;;;;;18.93;100.00;100611.41;5078783;28;20438;-63
2023/07/29 07:16:54;;;;;;;9.57;4.18;;;;;;;18.94;100.00;100615.78;5095757;28;20453;-65
2023/07/29 07:19:22;;;;;;;8.50;4.47;;;;;;;19.00;100.00;100613.66;5079762;28;20050;-63
2023/07/29 07:21:50;;;;;;;10.38;4.13;;;;;;;19.02;100.00;100616.06;5095494;28;20055;-62
2023/07/29 07:24:17;;;;;;;26.98;9.10;;;;;;;19.07;100.00;100618.66;5095864;28;20449;-64
2023/07/29 07:26:45;;;;;;;10.13;4.57;;;;;;;19.07;100.00;100611.19;5087479;28;20141;-64
2023/07/29 07:29:13;;;;;;;7.05;3.42;;;;;;;19.09;100.00;100616.38;5093371;28;20048;-63
2023/07/29 07:31:41;;;;;;;8.38;3.78;;;;;;;19.07;100.00;100613.13;5100881;28;20047;-62
2023/07/29 07:34:08;;;;;;;8.05;3.72;;;;;;;19.13;100.00;100607.09;5114225;28;20047;-62
2023/07/29 07:36:36;;;;;;;6.97;3.83;;;;;;;19.19;100.00;100616.00;5114534;28;20387;-62
2023/07/29 07:39:05;;;;;;;7.88;3.50;;;;;;;19.23;100.00;100616.97;5086766;28;20047;-62
2023/07/29 07:41:32;;;;;;;21.35;6.57;;;;;;;19.31;100.00;100618.06;5110250;28;20118;-63
2023/07/29 07:44:02;;;;;;;13.55;4.50;;;;;;;19.29;100.00;100629.47;5110901;28;20059;-62
2023/07/29 07:46:29;;;;;;;17.73;5.45;;;;;;;19.30;100.00;100624.75;5076567;28;20459;-62
2023/07/29 07:48:57;;;;;;;54.60;13.85;;;;;;;19.29;100.00;100623.09;5085095;28;20526;-63
2023/07/29 07:51:25;;;;;;;9.57;4.13;;;;;;;19.23;100.00;100621.69;5101803;28;20464;-62
2023/07/29 07:53:53;;;;;;;5.75;3.53;;;;;;;19.16;100.00;100631.28;5112734;28;20130;-64
2023/07/29 07:56:20;;;;;;;16.17;5.90;;;;;;;19.19;100.00;100631.78;5113070;28;20061;-63
2023/07/29 07:58:48;;;;;;;6.10;3.65;;;;;;;19.13;100.00;100637.47;5105754;28;20380;-64
2023/07/29 08:01:16;;;;;;;7.65;3.35;;;;;;;19.13;100.00;100637.47;5118771;28;20048;-63
2023/07/29 08:03:44;;;;;;;11.80;4.25;;;;;;;19.16;100.00;100647.06;5116068;28;20069;-63
2023/07/29 08:06:12;;;;;;;9.98;3.65;;;;;;;19.18;100.00;100639.25;5117644;28;20040;-62
2023/07/29 08:08:39;;;;;;;10.40;4.03;;;;;;;19.18;100.00;100642.00;5097636;28;20517;-62
2023/07/29 08:11:08;;;;;;;14.57;4.97;;;;;;;19.22;100.00;100648.50;5116355;28;20040;-62
2023/07/29 08:13:36;;;;;;;8.02;3.42;;;;;;;19.21;100.00;100638.59;5099324;28;20040;-62
2023/07/29 08:16:04;;;;;;;18.60;5.45;;;;;;;19.25;100.00;100633.22;5079319;28;20060;-64
2023/07/29 08:18:31;;;;;;;8.40;3.42;;;;;;;19.31;100.00;100631.88;5084421;28;20047;-64
2023/07/29 08:21:03;;;;;;;10.23;3.78;;;;;;;19.38;100.00;100643.22;5109914;28;20423;-63
2023/07/29 08:23:33;;;;;;;4.95;3.28;;;;;;;19.40;100.00;100637.38;5099028;28;20055;-64
2023/07/29 08:26:02;;;;;;;9.20;3.40;;;;;;;19.52;100.00;100640.25;4724379;28;10000583;-63
2023/07/29 08:28:38;;;;;;;6.90;3.50;;;;;;;19.55;100.00;100645.94;5060685;28;20048;-62
2023/07/29 08:31:07;;;;;;;8.10;3.67;;;;;;;19.66;100.00;100646.34;5084094;28;20043;-62
2023/07/29 08:33:35;;;;;;;6.03;3.38;;;;;;;19.67;100.00;100636.09;5095155;28;20051;-63
2023/07/29 08:36:04;;;;;;;6.85;3.47;;;;;;;19.68;100.00;100640.53;5095150;28;20048;-64
2023/07/29 08:38:31;;;;;;;7.13;3.25;;;;;;;19.71;100.00;100631.56;5112674;28;20456;-64
2023/07/29 08:41:14;;;;;;;7.32;3.35;;;;;;;19.71;100.00;100637.09;5111975;28;20107;-62
2023/07/29 08:44:10;;;;;;;6.85;3.20;;;;;;;19.72;100.00;100639.53;5062991;28;20132;-62
2023/07/29 08:46:40;;;;;;;4.93;3.00;;;;;;;19.71;100.00;100642.59;5075045;28;20048;-63
2023/07/29 08:49:08;;;;;;;7.75;3.33;;;;;;;19.81;100.00;100642.22;5092868;28;20495;-63
2023/07/29 08:51:36;;;;;;;7.22;3.55;;;;;;;19.89;100.00;100633.06;5077591;28;20642;-62
2023/07/29 08:54:04;;;;;;;5.07;3.10;;;;;;;19.93;100.00;100635.97;5078732;28;20081;-64
2023/07/29 08:56:32;;;;;;;6.05;3.15;;;;;;;19.91;100.00;100647.34;5113851;28;20376;-64
2023/07/29 08:59:02;;;;;;;5.57;3.10;;;;;;;19.90;100.00;100640.22;5078302;28;20055;-63
2023/07/29 09:01:30;;;;;;;5.57;3.17;;;;;;;19.93;100.00;100635.97;5076246;28;20051;-63
2023/07/29 09:03:58;;;;;;;4.10;2.40;;;;;;;19.94;100.00;100635.63;5095250;28;20054;-64
2023/07/29 09:06:27;;;;;;;6.10;2.80;;;;;;;19.98;100.00;100630.22;5076499;28;20042;-62
2023/07/29 09:08:58;;;;;;;4.47;2.50;;;;;;;19.93;100.00;100639.53;5112632;28;20047;-64
2023/07/29 09:11:26;;;;;;;3.60;2.70;;;;;;;19.89;100.00;100644.13;5110935;28;20051;-64
2023/07/29 09:13:54;;;;;;;5.70;2.95;;;;;;;19.91;100.00;100633.53;5089620;28;20043;-64
2023/07/29 09:16:22;;;;;;;5.32;2.80;;;;;;;19.95;100.00;100636.44;5113028;28;20407;-61
2023/07/29 09:18:51;;;;;;;8.02;2.90;;;;;;;19.99;100.00;100629.91;5089385;28;20042;-61
2023/07/29 09:21:24;;;;;;;4.97;2.50;;;;;;;19.96;99.92;100630.59;5120431;28;20058;-62
2023/07/29 09:23:52;;;;;;;4.20;2.53;;;;;;;20.00;100.00;100622.41;5103186;28;20154;-63
2023/07/29 09:26:26;;;;;;;3.85;2.80;;;;;;;20.07;100.00;100624.66;5099786;28;20043;-61
2023/07/29 09:28:56;;;;;;;3.80;2.60;;;;;;;20.13;99.43;100614.97;5083927;28;20051;-62
2023/07/29 09:31:25;;;;;;;3.88;2.22;;;;;;;20.19;99.19;100608.09;5122169;28;20495;-63
2023/07/29 09:34:01;;;;;;;8.18;2.95;;;;;;;20.36;99.06;100618.22;5100771;28;20491;-62
2023/07/29 09:36:32;;;;;;;;;;;;;;;20.42;99.70;100612.13;5098142;28;20054;-63
2023/07/29 09:39:00;;;;;;;5.07;2.72;;;;;;;20.42;98.19;100606.59;5094332;28;20387;-62
2023/07/29 09:41:31;;;;;;;4.32;2.40;;;;;;;20.45;97.24;100609.84;5115031;28;20055;-62
2023/07/29 09:43:59;;;;;;;3.85;2.38;;;;;;;20.41;96.66;100612.47;5048000;28;20051;-62
2023/07/29 09:46:33;;;;;;;3.08;2.35;;;;;;;20.40;96.93;100617.19;5080001;28;20052;-63
2023/07/29 09:49:03;;;;;;;4.57;2.28;;;;;;;20.46;97.33;100608.69;5096112;28;20629;-64
2023/07/29 09:51:31;;;;;;;4.70;2.50;;;;;;;20.52;97.41;100605.38;4724670;28;10000844;-63
2023/07/29 09:54:03;;;;;;;4.78;2.50;;;;;;;20.53;96.54;100611.72;5077899;28;20122;-63
2023/07/29 09:56:31;;;;;;;3.30;2.15;;;;;;;20.55;96.11;100610.25;5094054;28;20059;-64
2023/07/29 09:58:59;;;;;;;4.28;2.30;;;;;;;20.56;95.22;100619.34;5092915;28;20053;-64
2023/07/29 10:01:30;;;;;;;3.20;2.40;;;;;;;20.59;95.38;100615.94;5093254;28;20047;-64
2023/07/29 10:03:59;;;;;;;4.10;2.42;;;;;;;20.59;95.67;100615.94;5092914;28;20056;-64
2023/07/29 10:06:28;;;;;;;5.40;2.60;;;;;;;20.60;96.06;100615.56;5090296;28;20043;-62
2023/07/29 10:08:56;;;;;;;2.75;1.98;;;;;;;20.64;95.52;100616.50;5076183;28;20054;-63
2023/07/29 10:11:24;;;;;;;5.50;2.50;;;;;;;20.75;94.58;100619.66;5058935;28;20055;-64
2023/07/29 10:13:53;;;;;;;3.08;2.40;;;;;;;20.81;94.05;100618.28;5093119;28;20043;-64
2023/07/29 10:16:39;;;;;;;4.82;2.50;;;;;;;20.84;93.79;100620.38;5108842;28;20043;-64
2023/07/29 10:19:08;;;;;;;4.40;2.08;;;;;;;20.83;93.43;100623.50;5076545;28;20047;-64
2023/07/29 10:21:39;;;;;;;5.20;2.70;;;;;;;20.81;92.89;100612.75;5093997;28;20051;-64
2023/07/29 10:24:11;;;;;;;4.40;2.10;;;;;;;20.87;92.83;100616.09;5111325;28;20055;-64
2023/07/29 10:26:40;;;;;;;5.50;2.30;;;;;;;20.95;93.28;100606.06;5092499;28;20050;-64
2023/07/29 10:29:13;;;;;;;5.20;2.38;;;;;;;21.03;94.06;100610.72;5070998;28;20048;-64
2023/07/29 10:31:43;;;;;;;3.97;2.38;;;;;;;21.07;93.34;100608.88;5086891;28;20496;-64
2023/07/29 10:34:13;;;;;;;4.30;2.35;;;;;;;21.09;93.29;100603.78;5076210;28;20052;-63
2023/07/29 10:36:42;;;;;;;4.38;2.53;;;;;;;21.09;91.18;100614.06;5088061;28;20048;-64
2023/07/29 10:39:10;;;;;;;4.93;2.40;;;;;;;21.15;91.52;100610.72;5087477;28;20044;-63
2023/07/29 10:42:01;;;;;;;2.45;1.90;;;;;;;21.18;92.05;100601.72;5107602;28;20051;-64
2023/07/29 10:44:45;;;;;;;4.03;2.30;;;;;;;21.23;91.56;100598.72;5092864;28;20055;-63
2023/07/29 10:47:20;;;;;;;4.55;2.80;;;;;;;21.20;89.89;100591.09;5110577;28;20047;-64
2023/07/29 10:49:54;;;;;;;5.25;2.72;;;;;;;21.26;90.61;100592.50;5092285;28;20044;-63
2023/07/29 10:52:41;;;;;;;4.65;2.65;;;;;;;21.29;91.25;100591.00;5092739;28;20104;-63
2023/07/29 10:55:26;;;;;;;3.75;2.38;;;;;;;21.38;91.27;100599.19;5085787;28;20055;-65
2023/07/29 10:58:05;;;;;;;4.50;2.58;;;;;;;21.37;89.90;100601.16;5090017;28;20048;-62
2023/07/29 11:00:33;;;;;;;3.20;2.25;;;;;;;21.41;89.78;100595.78;5106260;28;20108;-62
2023/07/29 11:03:03;;;;;;;3.63;2.40;;;;;;;21.44;89.55;100595.06;5110303;28;20047;-65
2023/07/29 11:05:52;;;;;;;3.83;2.10;;;;;;;21.45;90.23;100593.91;5071805;28;20048;-64
2023/07/29 11:08:31;;;;;;;3.47;2.08;;;;;;;21.47;90.81;100597.13;5056108;28;20160;-60
2023/07/29 11:11:12;;;;;;;3.67;2.05;;;;;;;21.45;89.06;100602.22;5055452;28;20071;-64
2023/07/29 11:13:40;;;;;;;4.50;2.47;;;;;;;21.37;88.59;100600.34;5056241;28;20055;-64
2023/07/29 11:16:11;;;;;;;5.57;2.80;;;;;;;21.31;89.24;100597.00;5090748;28;20048;-63
2023/07/29 11:18:39;;;;;;;3.45;2.50;;;;;;;21.23;88.27;100593.16;5081621;28;20542;-62
2023/07/29 11:21:07;;;;;;;12.20;2.60;;;;;;;21.19;88.66;100595.03;5086704;28;20104;-63
2023/07/29 11:23:36;;;;;;;2.47;2.05;;;;;;;21.17;90.07;100594.56;5099054;28;20105;-62
2023/07/29 11:26:05;;;;;;;4.20;2.40;;;;;;;21.19;90.75;100597.81;5098886;28;20415;-65
2023/07/29 11:28:39;;;;;;;4.97;2.60;;;;;;;21.19;90.21;100599.75;5114479;28;20051;-63